Time;durP1;ratioP1;P1;durP2;ratioP2;P2;SDS_P1;SDS_P2;PMS_P1;PMS_P2;Temp;Humidity;BMP_temperature;BMP_pressure;BME280_temperature;BME280_humidity;BME280_pressure;Samples;Min_cycle;Max_cycle;Signal;HPM_P1;HPM_P2
2024/04/12 00:00:59;;;;;;;47.78;20.50;;;;;;;12.43;100.00;103117.81;5350322;26;20235;-58
2024/04/12 00:03:26;;;;;;;45.10;19.95;;;;;;;12.42;100.00;103110.66;5334758;26;20344;-59
2024/04/12 00:05:54;;;;;;;44.75;19.40;;;;;;;12.55;100.00;103108.69;5353173;26;20358;-58
2024/04/12 00:08:20;;;;;;;48.60;19.20;;;;;;;12.65;100.00;103099.56;5347995;26;20256;-58
2024/04/12 00:10:46;;;;;;;42.08;18.15;;;;;;;12.58;100.00;103094.31;5353975;26;20243;-59
2024/04/12 00:13:12;;;;;;;36.55;16.38;;;;;;;12.53;100.00;103096.19;5351424;26;20242;-58
2024/04/12 00:15:38;;;;;;;44.25;17.00;;;;;;;12.63;100.00;103096.03;5354269;26;20281;-57
2024/04/12 00:18:05;;;;;;;38.70;17.38;;;;;;;12.65;100.00;103088.81;5350912;26;20251;-59
2024/04/12 00:20:31;;;;;;;30.27;15.02;;;;;;;12.66;100.00;103095.06;5333340;26;20291;-57
2024/04/12 00:22:57;;;;;;;26.52;14.43;;;;;;;12.65;100.00;103093.31;5353796;26;20281;-58
2024/04/12 00:25:23;;;;;;;30.95;13.60;;;;;;;12.60;100.00;103089.78;5351533;26;20566;-58
2024/04/12 00:27:49;;;;;;;28.63;12.75;;;;;;;12.63;100.00;103085.28;5330928;26;20783;-58
2024/04/12 00:30:38;;;;;;;17.25;9.60;;;;;;;12.41;100.00;103081.13;5352022;26;20246;-58
2024/04/12 00:33:01;;;;;;;18.13;9.20;;;;;;;12.48;100.00;103097.13;5349257;26;20816;-56
2024/04/12 00:35:34;;;;;;;21.80;10.30;;;;;;;12.62;100.00;103088.00;5340369;26;20231;-59
2024/04/12 00:38:03;;;;;;;14.77;8.05;;;;;;;12.35;100.00;103087.47;5354485;26;20246;-58
2024/04/12 00:40:32;;;;;;;19.60;8.30;;;;;;;12.37;100.00;103096.38;5355316;26;20247;-59
2024/04/12 00:43:11;;;;;;;17.88;7.55;;;;;;;12.04;100.00;103044.91;5354444;26;20298;-60
2024/04/12 00:45:48;;;;;;;12.88;6.85;;;;;;;12.49;100.00;103098.91;5351752;26;20242;-57
2024/04/12 00:48:15;;;;;;;12.25;5.13;;;;;;;12.25;100.00;103083.13;5335396;26;20242;-58
2024/04/12 00:50:43;;;;;;;12.27;5.63;;;;;;;12.21;100.00;103092.16;5354216;26;20298;-58
2024/04/12 00:53:13;;;;;;;10.48;6.10;;;;;;;12.24;100.00;103081.38;5355138;26;20243;-57
2024/04/12 00:55:39;;;;;;;12.32;5.38;;;;;;;12.31;100.00;103080.34;5353541;26;20325;-58
2024/04/12 00:58:13;;;;;;;12.75;5.70;;;;;;;12.32;100.00;103079.44;5355757;26;20239;-57
2024/04/12 01:00:47;;;;;;;11.50;5.63;;;;;;;11.99;100.00;103019.00;5355532;26;20243;-58
2024/04/12 01:03:14;;;;;;;16.05;6.45;;;;;;;12.45;100.00;103072.09;5355211;26;20285;-58
2024/04/12 01:05:40;;;;;;;17.60;7.25;;;;;;;12.35;100.00;103065.97;5354804;26;20242;-58
2024/04/12 01:08:06;;;;;;;13.13;8.57;;;;;;;12.29;100.00;103056.19;5353165;26;20735;-58
2024/04/12 01:10:34;;;;;;;10.93;6.78;;;;;;;12.28;100.00;103050.84;5351615;26;20243;-58
2024/04/12 01:13:02;;;;;;;14.90;7.60;;;;;;;12.31;100.00;103042.72;5355501;26;20243;-58
2024/04/12 01:15:37;;;;;;;13.23;7.75;;;;;;;12.28;100.00;103056.22;5344007;26;20274;-58
2024/04/12 01:18:04;;;;;;;15.52;7.40;;;;;;;12.35;100.00;103047.16;5322298;26;20294;-58
2024/04/12 01:20:35;;;;;;;14.27;6.65;;;;;;;12.26;100.00;103061.59;5353846;26;20235;-58
2024/04/12 01:23:00;;;;;;;22.02;9.30;;;;;;;12.37;100.00;103055.19;5353327;26;20242;-58
2024/04/12 01:25:26;;;;;;;20.05;8.77;;;;;;;12.26;100.00;103058.91;5353083;26;20243;-59
2024/04/12 01:27:51;;;;;;;17.02;7.82;;;;;;;12.20;100.00;103071.56;5351071;26;20242;-59
2024/04/12 01:30:20;;;;;;;21.02;9.48;;;;;;;12.11;100.00;103056.44;5351591;26;20822;-59
2024/04/12 01:32:50;;;;;;;20.77;9.20;;;;;;;12.27;100.00;103046.38;5351337;26;20235;-59
2024/04/12 01:35:22;;;;;;;17.50;7.93;;;;;;;12.30;100.00;103049.03;5352143;26;20272;-58
2024/04/12 01:37:51;;;;;;;16.38;8.48;;;;;;;12.22;100.00;103045.53;5351303;26;20235;-59
2024/04/12 01:40:17;;;;;;;16.15;8.77;;;;;;;12.28;100.00;103056.22;5352856;26;20235;-58
2024/04/12 01:42:43;;;;;;;16.90;8.25;;;;;;;12.42;100.00;103051.53;5352379;26;20298;-59
2024/04/12 01:45:14;;;;;;;21.77;10.45;;;;;;;12.29;100.00;103047.25;5352936;26;20240;-59
2024/04/12 01:47:48;;;;;;;18.02;9.75;;;;;;;12.34;100.00;103045.38;5352587;26;20302;-58
2024/04/12 01:50:21;;;;;;;20.48;10.55;;;;;;;12.24;100.00;103028.50;5332192;26;20339;-57
2024/04/12 01:52:50;;;;;;;27.58;12.25;;;;;;;12.29;100.00;103028.44;5353467;26;20247;-59
2024/04/12 01:55:18;;;;;;;34.25;14.10;;;;;;;12.36;100.00;103015.78;5352165;26;20278;-59
2024/04/12 01:57:51;;;;;;;35.63;15.05;;;;;;;12.42;100.00;103011.22;5352650;26;20250;-59
2024/04/12 02:00:21;;;;;;;27.83;15.18;;;;;;;12.44;100.00;103014.75;5350467;26;20243;-59
2024/04/12 02:02:51;;;;;;;43.63;19.35;;;;;;;12.25;100.00;103032.06;5337441;26;20232;-58
2024/04/12 02:05:17;;;;;;;39.10;18.88;;;;;;;12.39;100.00;103035.47;5348021;26;20255;-59
2024/04/12 02:07:44;;;;;;;42.05;17.85;;;;;;;12.34;100.00;103042.69;5350861;26;20285;-59
2024/04/12 02:10:11;;;;;;;35.05;17.98;;;;;;;12.37;100.00;103042.63;5353006;26;20325;-58
2024/04/12 02:12:44;;;;;;;42.63;18.13;;;;;;;12.37;100.00;103037.25;5351755;26;20247;-59
2024/04/12 02:15:25;;;;;;;39.30;17.58;;;;;;;12.37;100.00;103034.56;5356151;26;20243;-58
2024/04/12 02:17:57;;;;;;;38.03;16.40;;;;;;;12.43;100.00;103041.66;5355425;26;20242;-58
2024/04/12 02:20:36;;;;;;;44.15;19.05;;;;;;;12.42;100.00;103047.94;5379434;26;20239;-58
2024/04/12 02:23:05;;;;;;;40.55;19.38;;;;;;;12.33;100.00;103043.63;5348417;26;20243;-59
2024/04/12 02:25:35;;;;;;;37.60;17.17;;;;;;;12.34;100.00;103033.75;5352772;26;20299;-58
2024/04/12 02:28:11;;;;;;;30.73;16.58;;;;;;;12.51;100.00;103025.41;5352760;26;20298;-58
2024/04/12 02:30:42;;;;;;;41.80;19.45;;;;;;;12.44;100.00;103038.06;5353752;26;20242;-58
2024/04/12 02:33:12;;;;;;;40.33;17.00;;;;;;;12.46;100.00;103033.56;5353768;26;20247;-58
2024/04/12 02:35:43;;;;;;;40.03;17.55;;;;;;;12.35;100.00;103030.16;5351609;26;20745;-59
2024/04/12 02:38:20;;;;;;;35.00;18.55;;;;;;;12.35;100.00;103036.41;5329425;26;20770;-59
2024/04/12 02:40:47;;;;;;;41.50;18.70;;;;;;;12.44;100.00;103030.00;5350683;26;20235;-58
2024/04/12 02:43:16;;;;;;;42.03;18.35;;;;;;;12.48;100.00;103020.97;5350259;26;20251;-58
2024/04/12 02:45:48;;;;;;;31.52;15.27;;;;;;;12.47;100.00;103012.00;5349632;26;20290;-59
2024/04/12 02:48:16;;;;;;;32.35;16.83;;;;;;;12.37;100.00;103018.44;5350129;26;20243;-59
2024/04/12 02:50:45;;;;;;;39.08;18.77;;;;;;;12.41;100.00;103020.19;5342632;26;20665;-58
2024/04/12 02:53:17;;;;;;;43.95;19.10;;;;;;;12.35;100.00;103017.59;5333609;26;20277;-57
2024/04/12 02:55:43;;;;;;;46.58;18.52;;;;;;;12.51;100.00;103006.59;5342306;26;20729;-59
2024/04/12 02:58:09;;;;;;;38.55;17.92;;;;;;;12.53;100.00;103010.16;5333533;26;20335;-58
2024/04/12 03:00:37;;;;;;;51.50;19.08;;;;;;;12.60;100.00;103007.34;5350008;26;20247;-59
2024/04/12 03:03:04;;;;;;;46.60;19.00;;;;;;;12.63;100.00;103006.38;5329845;26;20244;-58
2024/04/12 03:05:30;;;;;;;44.42;19.35;;;;;;;12.57;100.00;103006.50;5347552;26;20243;-58
2024/04/12 03:07:55;;;;;;;47.13;19.70;;;;;;;12.41;100.00;102990.63;5350937;26;20274;-58
2024/04/12 03:10:24;;;;;;;44.55;19.70;;;;;;;12.39;100.00;102991.53;5349857;26;20627;-59
2024/04/12 03:12:51;;;;;;;43.38;20.02;;;;;;;12.34;100.00;102988.94;5351382;26;20243;-58
2024/04/12 03:15:20;;;;;;;46.13;17.95;;;;;;;12.41;100.00;103003.19;5327468;26;20247;-58
2024/04/12 03:17:48;;;;;;;37.40;16.83;;;;;;;12.25;100.00;103005.19;5350998;26;20239;-58
2024/04/12 03:20:18;;;;;;;55.83;19.02;;;;;;;12.29;100.00;103015.00;5350121;26;20290;-58
2024/04/12 03:22:47;;;;;;;46.33;16.48;;;;;;;12.35;100.00;103016.72;5350323;26;20231;-58
2024/04/12 03:25:14;;;;;;;44.53;16.38;;;;;;;12.23;100.00;103004.34;5331581;26;20239;-58
2024/04/12 03:27:39;;;;;;;38.15;15.70;;;;;;;12.11;100.00;102997.34;5352009;26;20705;-60
2024/04/12 03:30:13;;;;;;;37.85;15.68;;;;;;;12.16;100.00;103006.25;5341469;26;20282;-60
2024/04/12 03:32:44;;;;;;;37.17;16.23;;;;;;;12.12;100.00;103000.00;5346262;26;20242;-58
2024/04/12 03:35:16;;;;;;;46.10;18.15;;;;;;;12.29;100.00;103015.88;5352085;26;20321;-60
2024/04/12 03:38:24;;;;;;;39.08;17.42;;;;;;;12.32;100.00;103010.44;5351647;26;20334;-58
2024/04/12 03:40:33;;;;;;;46.88;19.27;;;;;;;12.22;100.00;103013.31;5353002;26;20236;-60
2024/04/12 03:43:04;;;;;;;50.40;18.05;;;;;;;12.08;100.00;103017.09;5353629;26;20285;-58
2024/04/12 03:45:35;;;;;;;47.58;18.70;;;;;;;12.23;100.00;103025.84;5330500;26;20232;-58
2024/04/12 03:48:13;;;;;;;46.47;18.63;;;;;;;12.20;100.00;103010.63;5351681;26;20274;-58
2024/04/12 03:50:41;;;;;;;42.42;16.33;;;;;;;12.05;100.00;102994.75;5352897;26;20243;-58
2024/04/12 03:53:16;;;;;;;40.78;17.73;;;;;;;12.22;100.00;103002.56;5336250;26;20244;-57
2024/04/12 03:55:44;;;;;;;56.63;18.52;;;;;;;12.02;100.00;103000.16;5327949;26;20273;-58
2024/04/12 03:58:16;;;;;;;66.30;21.88;;;;;;;11.88;100.00;102981.53;5333938;26;20819;-58
2024/04/12 04:00:45;;;;;;;58.15;20.77;;;;;;;12.05;100.00;102984.00;5351811;26;20243;-58
2024/04/12 04:03:30;;;;;;;59.03;23.75;;;;;;;12.05;100.00;103000.13;5353595;26;20243;-57
2024/04/12 04:05:56;;;;;;;69.47;25.88;;;;;;;11.97;100.00;102983.25;5345804;26;20240;-59
2024/04/12 04:08:22;;;;;;;67.43;25.77;;;;;;;12.03;100.00;102988.53;5345645;26;20235;-59
2024/04/12 04:10:49;;;;;;;68.43;26.27;;;;;;;12.13;100.00;102984.78;5337329;26;21083;-58
2024/04/12 04:13:15;;;;;;;76.35;26.83;;;;;;;12.12;100.00;102983.00;5345460;26;20286;-58
2024/04/12 04:15:50;;;;;;;74.00;25.98;;;;;;;12.10;100.00;102966.91;5354442;26;20243;-58
2024/04/12 04:18:17;;;;;;;70.40;25.58;;;;;;;12.07;100.00;102966.09;5355758;26;20234;-58
2024/04/12 04:20:43;;;;;;;69.80;27.35;;;;;;;12.07;100.00;102966.09;5355000;26;20243;-58
2024/04/12 04:23:09;;;;;;;69.82;27.70;;;;;;;12.05;100.00;102966.09;5354395;26;20338;-58
2024/04/12 04:25:35;;;;;;;76.72;29.65;;;;;;;12.19;100.00;102963.22;5356455;26;20239;-59
2024/04/12 04:28:02;;;;;;;72.78;29.23;;;;;;;12.07;100.00;102933.84;5357133;26;20298;-57
2024/04/12 04:30:28;;;;;;;74.20;25.73;;;;;;;12.35;100.00;102957.59;5356152;26;20239;-58
2024/04/12 04:32:54;;;;;;;71.95;27.05;;;;;;;12.39;100.00;102953.91;5356501;26;20235;-58
2024/04/12 04:35:26;;;;;;;71.10;24.75;;;;;;;12.21;100.00;102944.38;5355494;26;20239;-59
2024/04/12 04:37:56;;;;;;;63.35;22.60;;;;;;;12.18;100.00;102952.47;5355075;26;20247;-59
2024/04/12 04:40:25;;;;;;;59.65;22.90;;;;;;;12.27;100.00;102938.91;5355272;26;20247;-59
2024/04/12 04:42:53;;;;;;;59.92;21.30;;;;;;;12.20;100.00;102940.78;5339234;26;20235;-58
2024/04/12 04:45:21;;;;;;;65.10;21.08;;;;;;;12.34;100.00;102943.25;5354283;26;20250;-59
2024/04/12 04:47:50;;;;;;;50.20;17.95;;;;;;;12.30;100.00;102936.16;5351844;26;20247;-58
2024/04/12 04:50:18;;;;;;;46.40;18.27;;;;;;;12.26;100.00;102923.69;5352370;26;20282;-58
2024/04/12 04:52:44;;;;;;;48.10;18.77;;;;;;;12.24;100.00;102929.06;5348284;26;20315;-58
2024/04/12 04:55:12;;;;;;;42.78;17.85;;;;;;;12.40;100.00;102936.88;5336906;26;20677;-58
2024/04/12 04:57:43;;;;;;;39.97;16.27;;;;;;;12.36;100.00;102940.53;5346153;26;20246;-58
2024/04/12 05:00:22;;;;;;;37.60;15.27;;;;;;;12.30;100.00;102912.84;5352170;26;20239;-58
2024/04/12 05:02:52;;;;;;;38.85;15.18;;;;;;;12.43;100.00;102932.31;5351896;26;20254;-59
2024/04/12 05:05:26;;;;;;;38.70;15.98;;;;;;;12.34;100.00;102920.84;5352767;26;20239;-58
2024/04/12 05:07:57;;;;;;;38.47;14.82;;;;;;;12.32;100.00;102919.06;5352657;26;20254;-57
2024/04/12 05:10:24;;;;;;;38.90;14.60;;;;;;;12.34;100.00;102913.69;5349980;26;20247;-58
2024/04/12 05:12:50;;;;;;;42.50;14.65;;;;;;;12.31;100.00;102911.03;5352499;26;20251;-59
2024/04/12 05:15:49;;;;;;;40.22;14.73;;;;;;;12.51;100.00;102901.75;5352081;26;20282;-59
2024/04/12 05:18:14;;;;;;;38.95;14.95;;;;;;;12.44;100.00;102903.66;5351337;26;20274;-58
2024/04/12 05:20:41;;;;;;;29.58;12.38;;;;;;;12.61;100.00;102908.75;5351496;26;20239;-59
2024/04/12 05:23:14;;;;;;;36.58;13.35;;;;;;;12.49;100.00;102899.97;5348909;26;20580;-59
2024/04/12 05:25:40;;;;;;;36.80;12.73;;;;;;;12.55;100.00;102917.78;5348864;26;20278;-59
2024/04/12 05:28:06;;;;;;;30.48;13.60;;;;;;;12.52;100.00;102919.66;5330002;26;20721;-58
2024/04/12 05:30:36;;;;;;;29.02;13.63;;;;;;;12.39;100.00;102919.88;5350342;26;20243;-59
2024/04/12 05:33:03;;;;;;;38.10;13.38;;;;;;;12.49;100.00;102932.22;5352504;26;20761;-58
2024/04/12 05:35:30;;;;;;;39.50;15.15;;;;;;;12.51;100.00;102926.84;5352020;26;20341;-58
2024/04/12 05:37:58;;;;;;;30.70;12.65;;;;;;;12.31;100.00;102925.38;5352092;26;20235;-58
2024/04/12 05:40:26;;;;;;;28.25;13.13;;;;;;;12.49;100.00;102934.91;5352822;26;20255;-57
2024/04/12 05:42:51;;;;;;;30.45;12.52;;;;;;;12.52;100.00;102936.66;5351553;26;20588;-58
2024/04/12 05:45:19;;;;;;;31.40;13.65;;;;;;;12.61;100.00;102933.81;5350571;26;20243;-59
2024/04/12 05:47:54;;;;;;;34.72;13.60;;;;;;;12.75;100.00;102935.38;5328323;26;20235;-58
2024/04/12 05:50:20;;;;;;;34.33;13.63;;;;;;;12.76;100.00;102940.72;5352066;26;20254;-58
2024/04/12 05:52:46;;;;;;;26.80;12.50;;;;;;;12.66;100.00;102936.41;5352938;26;20247;-58
2024/04/12 05:55:14;;;;;;;31.42;12.65;;;;;;;12.74;100.00;102947.94;5354753;26;20697;-59
2024/04/12 05:57:40;;;;;;;24.10;11.85;;;;;;;12.71;100.00;102942.63;5335229;26;20317;-56
2024/04/12 06:00:09;;;;;;;27.30;11.48;;;;;;;12.72;100.00;102947.06;5353789;26;20329;-57
2024/04/12 06:02:37;;;;;;;26.17;11.85;;;;;;;12.63;100.00;102936.47;5352313;26;20247;-59
2024/04/12 06:05:05;;;;;;;27.80;12.93;;;;;;;12.81;100.00;102944.19;5348823;26;20240;-57
2024/04/12 06:07:37;;;;;;;25.13;11.73;;;;;;;12.67;100.00;102946.28;5352513;26;20243;-58
2024/04/12 06:10:04;;;;;;;34.25;11.25;;;;;;;12.61;100.00;102928.44;5349920;26;20239;-58
2024/04/12 06:12:33;;;;;;;26.60;11.55;;;;;;;12.57;100.00;102936.59;5351681;26;20287;-57
2024/04/12 06:15:04;;;;;;;29.10;10.60;;;;;;;12.63;100.00;102929.31;5352128;26;20292;-58
2024/04/12 06:17:29;;;;;;;34.00;12.50;;;;;;;12.76;100.00;102945.22;5351268;26;20251;-57
2024/04/12 06:19:59;;;;;;;26.88;11.77;;;;;;;12.77;100.00;102926.38;5352221;26;20231;-58
2024/04/12 06:22:26;;;;;;;24.85;11.02;;;;;;;12.60;100.00;102933.84;5353012;26;20343;-58
2024/04/12 06:24:52;;;;;;;34.90;11.13;;;;;;;12.75;100.00;102940.75;5329566;26;20239;-57
2024/04/12 06:27:29;;;;;;;33.33;11.38;;;;;;;12.72;100.00;102946.19;5350454;26;20725;-58
2024/04/12 06:30:00;;;;;;;33.38;11.55;;;;;;;12.78;100.00;102944.25;5352034;26;20284;-57
2024/04/12 06:32:26;;;;;;;26.90;11.85;;;;;;;12.80;100.00;102953.22;5345602;26;20605;-57
2024/04/12 06:34:53;;;;;;;22.00;10.75;;;;;;;12.78;100.00;102944.25;5351779;26;20247;-57
2024/04/12 06:37:21;;;;;;;27.35;11.52;;;;;;;12.87;100.00;102948.59;5350282;26;20778;-58
2024/04/12 06:39:48;;;;;;;28.77;10.80;;;;;;;12.94;100.00;102954.72;5325418;26;20748;-58
2024/04/12 06:42:14;;;;;;;24.95;10.38;;;;;;;13.00;100.00;102939.38;5349554;26;20247;-59
2024/04/12 06:44:48;;;;;;;24.08;10.27;;;;;;;12.97;100.00;102954.69;5318495;26;20306;-58
2024/04/12 06:47:18;;;;;;;29.05;12.20;;;;;;;12.98;100.00;102951.06;5338344;26;20352;-59
2024/04/12 06:49:44;;;;;;;25.00;11.40;;;;;;;12.86;100.00;102933.34;5347453;26;20282;-59
2024/04/12 06:52:10;;;;;;;30.55;11.00;;;;;;;13.01;100.00;102938.44;5346897;26;20336;-59
2024/04/12 06:54:41;;;;;;;36.28;12.85;;;;;;;13.22;100.00;102932.69;5346557;26;20281;-59
2024/04/12 06:57:25;;;;;;;24.85;11.40;;;;;;;13.26;100.00;102942.44;5345964;26;20830;-60
2024/04/12 06:59:53;;;;;;;35.33;13.18;;;;;;;13.27;100.00;102945.13;5349866;26;20325;-59
2024/04/12 07:02:23;;;;;;;28.85;11.55;;;;;;;13.39;100.00;102946.72;5340855;26;20282;-59
2024/04/12 07:04:50;;;;;;;27.10;12.48;;;;;;;13.35;100.00;102945.91;5336361;26;20348;-59
2024/04/12 07:07:22;;;;;;;24.23;10.93;;;;;;;13.38;100.00;102953.91;5352077;26;20231;-59
2024/04/12 07:09:48;;;;;;;26.27;9.52;;;;;;;13.43;100.00;102948.44;5353034;26;20243;-60
2024/04/12 07:12:14;;;;;;;26.45;10.07;;;;;;;13.34;100.00;102943.25;5352137;26;20235;-60
2024/04/12 07:14:41;;;;;;;18.92;9.48;;;;;;;13.40;100.00;102944.88;5353307;26;20235;-58
2024/04/12 07:17:23;;;;;;;25.45;8.98;;;;;;;13.42;100.00;102941.25;5351319;26;20243;-59
2024/04/12 07:19:49;;;;;;;22.45;8.80;;;;;;;13.52;100.00;102948.22;5348231;26;20247;-58
2024/04/12 07:22:18;;;;;;;20.98;7.97;;;;;;;13.65;100.00;102937.19;5348655;26;20247;-60
2024/04/12 07:24:47;;;;;;;22.13;8.02;;;;;;;13.84;100.00;102927.78;5345391;26;20248;-58
2024/04/12 07:27:16;;;;;;;22.20;7.47;;;;;;;14.02;100.00;102947.09;5353379;26;20239;-58
2024/04/12 07:29:44;;;;;;;20.58;7.55;;;;;;;13.95;100.00;102945.47;5342420;26;20356;-57
2024/04/12 07:32:13;;;;;;;18.90;7.18;;;;;;;14.04;100.00;102956.94;5353396;26;20569;-60
2024/04/12 07:34:48;;;;;;;19.50;7.95;;;;;;;14.00;100.00;102954.34;5352188;26;20231;-59
2024/04/12 07:37:32;;;;;;;15.52;7.10;;;;;;;13.87;100.00;102975.28;5327448;26;20769;-58
2024/04/12 07:42:46;;;;;;;14.48;6.32;;;;;;;13.72;100.00;102960.34;5344883;26;20330;-58
2024/04/12 07:45:20;;;;;;;21.33;7.13;;;;;;;13.53;100.00;102958.06;5336395;26;20694;-58
2024/04/12 07:50:47;;;;;;;20.98;7.28;;;;;;;13.78;100.00;102959.34;5281635;27;20716;-59
2024/04/12 07:53:25;;;;;;;15.05;6.00;;;;;;;13.76;100.00;102959.38;5325671;26;20359;-59
2024/04/12 07:55:58;;;;;;;21.00;5.63;;;;;;;13.79;100.00;102966.50;5326220;26;20256;-58
2024/04/12 07:58:27;;;;;;;14.65;5.13;;;;;;;14.17;100.00;102962.03;5340890;26;20239;-57
2024/04/12 08:01:09;;;;;;;14.55;5.65;;;;;;;14.31;100.00;102964.41;5341933;26;20555;-58
2024/04/12 08:03:37;;;;;;;13.30;4.68;;;;;;;14.58;99.72;102965.53;5341954;26;20239;-58
2024/04/12 08:06:03;;;;;;;16.35;5.38;;;;;;;14.62;98.46;102953.72;5328860;26;20240;-57
2024/04/12 08:08:43;;;;;;;15.20;4.75;;;;;;;14.56;97.02;102953.88;5341064;26;20358;-58
2024/04/12 08:11:11;;;;;;;12.18;3.88;;;;;;;14.72;96.42;102928.28;5347719;26;20281;-58
2024/04/12 08:13:44;;;;;;;24.52;5.00;;;;;;;14.81;95.20;102937.97;5347382;26;20277;-58
2024/04/12 08:16:14;;;;;;;14.93;4.13;;;;;;;15.03;95.79;102938.25;5347514;26;20252;-58
2024/04/12 08:18:43;;;;;;;12.85;3.80;;;;;;;15.18;92.11;102936.94;5338201;26;20279;-57
2024/04/12 08:21:12;;;;;;;15.63;4.05;;;;;;;15.25;92.39;102930.44;5342732;26;20390;-57
2024/04/12 08:23:43;;;;;;;13.88;3.97;;;;;;;15.58;91.31;102956.47;5321853;26;20350;-59
2024/04/12 08:26:12;;;;;;;15.85;4.57;;;;;;;15.61;90.26;102949.16;5343857;26;20244;-57
2024/04/12 08:28:41;;;;;;;19.10;4.05;;;;;;;15.80;89.99;102954.94;5354409;26;20281;-57
2024/04/12 08:31:10;;;;;;;14.85;3.45;;;;;;;15.86;87.81;102957.44;5351746;26;20239;-58
2024/04/12 08:33:40;;;;;;;14.13;3.30;;;;;;;15.98;88.65;102950.72;5351210;26;20239;-57
2024/04/12 08:36:16;;;;;;;14.55;4.25;;;;;;;16.30;86.01;102956.03;5340208;26;20292;-59
2024/04/12 08:38:54;;;;;;;13.88;3.53;;;;;;;16.39;86.98;102962.03;5352944;26;20295;-59
2024/04/12 08:41:24;;;;;;;12.07;3.92;;;;;;;16.83;83.96;102947.00;5321981;26;20243;-59
2024/04/12 08:43:58;;;;;;;11.93;3.83;;;;;;;16.63;83.76;102956.72;5342835;26;20243;-57
2024/04/12 08:46:28;;;;;;;14.52;3.45;;;;;;;16.51;84.40;102959.84;5341056;26;20238;-57
2024/04/12 08:48:54;;;;;;;21.08;4.07;;;;;;;16.69;83.05;102944.78;5348562;26;20303;-58
2024/04/12 08:51:21;;;;;;;14.75;3.28;;;;;;;16.61;82.77;102941.47;5350591;26;20254;-56
2024/04/12 08:53:55;;;;;;;18.73;4.15;;;;;;;16.33;84.28;102934.31;5340803;26;20259;-57
2024/04/12 08:56:28;;;;;;;10.75;3.63;;;;;;;16.30;85.69;102945.22;5344554;26;20673;-58
2024/04/12 08:58:59;;;;;;;17.77;4.93;;;;;;;15.95;85.55;102949.97;5350448;26;20265;-58
2024/04/12 09:01:26;;;;;;;19.20;4.10;;;;;;;16.05;88.04;102956.84;5350362;26;20235;-57
2024/04/12 09:03:54;;;;;;;14.40;3.63;;;;;;;16.05;86.79;102973.94;5350270;26;20273;-59
2024/04/12 09:06:23;;;;;;;16.27;3.85;;;;;;;16.08;87.40;102942.31;5347483;26;20250;-57
2024/04/12 09:08:53;;;;;;;13.48;2.90;;;;;;;16.07;87.75;102946.84;5347422;26;20247;-57
2024/04/12 09:11:19;;;;;;;16.45;3.58;;;;;;;15.95;87.57;102950.84;5333711;26;20616;-57
2024/04/12 09:13:47;;;;;;;13.35;3.20;;;;;;;16.09;87.60;102946.81;5347642;26;20294;-57
2024/04/12 09:16:19;;;;;;;18.48;3.88;;;;;;;16.00;87.55;102951.59;5344790;26;20243;-57
2024/04/12 09:18:53;;;;;;;16.75;3.80;;;;;;;15.87;88.00;102952.91;5339342;26;20243;-57
2024/04/12 09:21:36;;;;;;;12.98;3.53;;;;;;;16.00;87.82;102961.50;5344008;26;20250;-57
2024/04/12 09:24:09;;;;;;;12.95;3.58;;;;;;;16.07;88.82;102959.50;5334561;26;20352;-59
2024/04/12 09:26:54;;;;;;;16.25;5.25;;;;;;;16.32;86.85;102941.50;5349914;26;20732;-57
2024/04/12 09:29:27;;;;;;;11.00;4.22;;;;;;;16.58;85.78;102945.16;5327829;26;20240;-59
2024/04/12 09:34:41;;;;;;;28.15;4.97;;;;;;;16.72;84.59;102953.69;5347173;26;20298;-56
2024/04/12 09:40:03;;;;;;;12.65;3.58;;;;;;;16.69;84.83;102966.44;5348401;26;20334;-57
2024/04/12 09:45:21;;;;;;;14.95;3.70;;;;;;;16.65;84.68;102972.91;5319714;26;20287;-58
2024/04/12 10:37:44;;;;;;;14.30;2.67;;;;;;;17.58;76.45;102989.41;5344655;26;20281;-60
2024/04/12 10:40:10;;;;;;;12.82;3.38;;;;;;;17.21;78.16;102982.66;5350485;26;20239;-59
2024/04/12 10:42:42;;;;;;;15.80;2.88;;;;;;;16.97;79.05;102979.94;5350793;26;20359;-59
2024/04/12 10:45:08;;;;;;;12.43;2.58;;;;;;;17.31;78.70;102986.81;5351105;26;20282;-59
2024/04/12 10:47:37;;;;;;;12.25;3.03;;;;;;;17.46;79.52;102983.53;5350521;26;20323;-58
2024/04/12 10:50:07;;;;;;;11.98;2.95;;;;;;;17.62;78.83;102994.66;5349175;26;20247;-58
2024/04/12 10:52:33;;;;;;;11.75;2.55;;;;;;;18.02;77.73;103002.22;5349359;26;20732;-58
2024/04/12 10:54:59;;;;;;;15.40;3.35;;;;;;;18.14;76.05;103004.44;5348539;26;20243;-59
2024/04/12 10:57:27;;;;;;;12.60;3.20;;;;;;;17.73;75.66;102988.81;5327495;26;20273;-58
2024/04/12 10:59:53;;;;;;;14.85;3.50;;;;;;;17.79;77.14;102985.91;5349235;26;20754;-58
2024/04/12 11:02:19;;;;;;;14.80;3.55;;;;;;;17.86;75.67;102986.53;5342927;26;20260;-58
2024/04/12 11:07:28;;;;;;;9.13;2.78;;;;;;;17.72;75.75;102999.72;5344345;26;20629;-58
2024/04/12 11:10:03;;;;;;;11.95;3.72;;;;;;;17.48;77.83;103006.03;5344230;26;20239;-60
2024/04/12 11:12:45;;;;;;;7.32;2.45;;;;;;;17.78;77.61;102988.66;5345556;26;20284;-60
2024/04/12 11:32:05;;;;;;;12.48;3.15;;;;;;;17.71;75.81;102981.72;5331922;26;20274;-59
2024/04/12 11:34:32;;;;;;;14.90;3.45;;;;;;;18.06;75.27;102984.91;5326797;26;20251;-59
2024/04/12 11:37:05;;;;;;;13.70;2.95;;;;;;;18.19;74.22;102967.16;5349478;26;20243;-59
2024/04/12 11:39:33;;;;;;;10.95;3.17;;;;;;;18.22;75.40;102983.28;5342527;26;20248;-59
2024/04/12 11:42:00;;;;;;;21.88;3.97;;;;;;;18.03;74.49;102977.75;5334632;26;20276;-59
2024/04/12 11:44:26;;;;;;;15.15;3.38;;;;;;;17.83;75.52;102957.69;5324539;26;20678;-59
2024/04/12 11:46:56;;;;;;;13.88;2.92;;;;;;;17.72;75.40;102965.38;5329196;26;20244;-59
2024/04/12 11:49:25;;;;;;;13.95;2.97;;;;;;;17.54;76.30;102966.97;5346816;26;20239;-58
2024/04/12 11:51:57;;;;;;;11.85;3.10;;;;;;;17.42;77.56;102970.16;5349305;26;20239;-58
2024/04/12 11:54:29;;;;;;;12.05;3.22;;;;;;;17.59;78.60;102975.81;5351674;26;20576;-58
2024/04/12 11:57:05;;;;;;;12.77;2.67;;;;;;;17.89;76.53;102969.31;5351254;26;20629;-58
2024/04/12 11:59:31;;;;;;;11.60;2.75;;;;;;;18.36;76.23;102969.16;5349540;26;20332;-58
2024/04/12 12:02:00;;;;;;;12.60;2.97;;;;;;;17.82;73.90;102971.31;5349018;26;20248;-59
2024/04/12 12:04:29;;;;;;;19.10;3.63;;;;;;;17.90;75.29;102985.50;5348995;26;20282;-59
2024/04/12 12:06:55;;;;;;;16.73;2.92;;;;;;;17.85;76.27;102970.31;5330797;26;20247;-60
2024/04/12 12:09:21;;;;;;;14.48;3.60;;;;;;;17.54;76.69;102968.81;5352129;26;20309;-59
2024/04/12 12:11:49;;;;;;;11.00;2.97;;;;;;;17.58;76.96;102965.03;5348019;26;20232;-59
2024/04/12 12:14:18;;;;;;;12.98;3.17;;;;;;;17.53;77.00;102953.50;5334951;26;20809;-59
2024/04/12 12:16:44;;;;;;;14.85;2.67;;;;;;;17.22;78.22;102950.09;5351572;26;20302;-59
2024/04/12 12:19:10;;;;;;;10.77;2.83;;;;;;;17.57;79.28;102949.72;5352438;26;20235;-59
2024/04/12 12:21:36;;;;;;;12.93;3.33;;;;;;;17.66;78.01;102949.38;5350128;26;20270;-59
2024/04/12 12:24:03;;;;;;;13.15;4.95;;;;;;;17.52;76.26;102955.31;5330769;26;20259;-59
2024/04/12 12:26:32;;;;;;;12.43;3.72;;;;;;;17.61;77.82;102943.22;5342590;26;20273;-60
2024/04/12 12:28:59;;;;;;;11.18;2.88;;;;;;;17.36;77.65;102952.31;5348863;26;20349;-59
2024/04/12 12:31:26;;;;;;;15.35;3.00;;;;;;;17.21;77.84;102936.63;5347016;26;20244;-59
2024/04/12 12:33:52;;;;;;;10.35;3.17;;;;;;;17.44;78.14;102960.13;5348918;26;20281;-58
2024/04/12 12:36:18;;;;;;;11.88;3.20;;;;;;;17.30;77.91;102957.94;5326339;26;20231;-58
2024/04/12 12:38:43;;;;;;;21.50;3.70;;;;;;;17.75;78.04;102957.13;5327913;26;20236;-59
2024/04/12 12:41:10;;;;;;;14.25;3.53;;;;;;;17.64;78.55;102967.50;5343136;26;20243;-59